createdAt,value
2022-08-21T00:04:37.776Z,100449.97
2022-08-21T00:09:45.576Z,100464.47
2022-08-21T00:14:42.450Z,100450.50
2022-08-21T00:19:40.738Z,100460.56
2022-08-21T00:24:37.426Z,100464.91
2022-08-21T00:29:35.043Z,100438.16
2022-08-21T00:34:31.924Z,100452.50
2022-08-21T00:39:29.323Z,100448.78
2022-08-21T00:44:26.265Z,100451.13
2022-08-21T00:49:23.096Z,100449.78
2022-08-21T00:54:22.922Z,100446.00
2022-08-21T00:59:21.814Z,100423.69
2022-08-21T01:04:18.949Z,100410.75
2022-08-21T01:09:16.058Z,100412.59
2022-08-21T01:14:12.961Z,100398.97
2022-08-21T01:19:11.363Z,100392.31
2022-08-21T01:24:09.647Z,100401.56
2022-08-21T01:29:08.015Z,100383.28
2022-08-21T01:34:05.069Z,100377.94
2022-08-21T01:39:02.596Z,100383.69
2022-08-21T01:43:59.993Z,100375.75
2022-08-21T01:48:56.752Z,100368.84
2022-08-21T01:53:53.456Z,100375.31
2022-08-21T01:58:50.114Z,100366.78
2022-08-21T02:03:47.672Z,100371.19
2022-08-21T02:08:44.723Z,100354.69
2022-08-21T02:13:41.497Z,100356.66
2022-08-21T02:18:38.577Z,100356.06
2022-08-21T02:23:36.027Z,100346.22
2022-08-21T02:28:33.011Z,100342.09
2022-08-21T02:33:30.183Z,100337.19
2022-08-21T02:38:28.397Z,100336.44
2022-08-21T02:43:27.363Z,100332.75
2022-08-21T02:48:25.902Z,100341.09
2022-08-21T02:53:22.859Z,100333.66
2022-08-21T02:58:24.192Z,100328.72
2022-08-21T03:03:25.035Z,100334.38
2022-08-21T03:08:22.871Z,100329.16
2022-08-21T03:13:23.255Z,100330.78
2022-08-21T03:18:20.375Z,100325.41
2022-08-21T03:23:19.620Z,100322.44
2022-08-21T03:28:17.356Z,100311.88
2022-08-21T03:33:15.554Z,100328.34
2022-08-21T03:38:13.539Z,100319.59
2022-08-21T03:43:10.976Z,100315.56
2022-08-21T03:48:09.501Z,100311.28
2022-08-21T03:53:07.078Z,100313.06
2022-08-21T03:58:16.315Z,100309.38
2022-08-21T04:03:14.560Z,100308.25
2022-08-21T04:08:11.368Z,100317.47
2022-08-21T04:13:08.695Z,100328.03
2022-08-21T04:18:05.871Z,100365.25
2022-08-21T04:23:03.664Z,100376.22
2022-08-21T04:28:00.560Z,100382.53
2022-08-21T04:32:58.483Z,100407.50
2022-08-21T04:37:55.490Z,100396.72
2022-08-21T04:42:53.653Z,100406.53
2022-08-21T04:47:52.543Z,100394.22
2022-08-21T04:52:50.153Z,100408.84
2022-08-21T04:57:49.315Z,100400.28
2022-08-21T05:02:47.951Z,100407.63
2022-08-21T05:07:47.152Z,100415.66
2022-08-21T05:12:46.869Z,100403.28
2022-08-21T05:17:44.288Z,100424.00
2022-08-21T05:22:51.115Z,100417.25
2022-08-21T05:27:47.973Z,100418.03
2022-08-21T05:32:49.088Z,100425.94
2022-08-21T05:37:46.452Z,100420.72
2022-08-21T05:42:54.782Z,100428.44
2022-08-21T05:47:52.011Z,100418.59
2022-08-21T05:52:48.821Z,100408.81
2022-08-21T05:57:46.199Z,100397.22
2022-08-21T06:02:43.154Z,100417.09
2022-08-21T06:07:40.099Z,100419.06
2022-08-21T06:12:36.863Z,100420.81
2022-08-21T06:17:38.961Z,100421.16
2022-08-21T06:22:35.774Z,100413.72
2022-08-21T06:27:32.926Z,100416.81
2022-08-21T06:32:29.788Z,100416.81
2022-08-21T06:37:27.976Z,100412.03
2022-08-21T06:42:27.966Z,100419.28
2022-08-21T06:47:25.532Z,100421.75
2022-08-21T06:52:22.307Z,100426.59
2022-08-21T06:57:19.728Z,100427.06
2022-08-21T07:02:16.470Z,100419.00
2022-08-21T07:07:13.489Z,100413.97
2022-08-21T07:12:10.387Z,100429.06
2022-08-21T07:17:07.992Z,100408.34
2022-08-21T07:22:05.284Z,100418.81
2022-08-21T07:27:02.196Z,100416.44
2022-08-21T07:31:59.084Z,100415.50
2022-08-21T07:36:56.532Z,100399.56
2022-08-21T07:41:53.472Z,100408.69
2022-08-21T07:46:50.469Z,100394.97
2022-08-21T07:51:47.420Z,100391.81
2022-08-21T07:56:44.958Z,100385.94
2022-08-21T08:01:42.074Z,100383.81
2022-08-21T08:06:38.966Z,100383.03
2022-08-21T08:11:36.395Z,100382.25
2022-08-21T08:16:33.850Z,100370.94
2022-08-21T08:21:34.029Z,100366.53
2022-08-21T08:26:31.693Z,100367.22
2022-08-21T08:31:28.707Z,100362.25
2022-08-21T08:36:34.010Z,100349.72
2022-08-21T08:41:33.366Z,100357.63
2022-08-21T08:46:35.205Z,100356.78
2022-08-21T08:51:38.416Z,100354.75
2022-08-21T08:56:36.239Z,100351.53
2022-08-21T09:01:38.158Z,100351.06
2022-08-21T09:06:44.660Z,100323.28
2022-08-21T09:11:46.051Z,100334.34
2022-08-21T09:16:47.853Z,100329.72
2022-08-21T09:21:50.801Z,100323.09
2022-08-21T09:26:57.981Z,100316.72
2022-08-21T09:31:54.863Z,100313.38
2022-08-21T09:36:52.577Z,100310.97
2022-08-21T09:41:55.992Z,100297.44
2022-08-21T09:46:53.267Z,100294.91
2022-08-21T09:51:51.874Z,100278.72
2022-08-21T09:57:14.323Z,100284.84
2022-08-21T10:02:26.705Z,100277.72
2022-08-21T10:07:25.428Z,100264.38
2022-08-21T10:12:26.606Z,100260.25
2022-08-21T10:17:28.580Z,100259.41
2022-08-21T10:22:33.728Z,100231.91
2022-08-21T10:27:36.295Z,100236.09
2022-08-21T10:32:40.154Z,100241.63
2022-08-21T10:37:45.886Z,100233.94
2022-08-21T10:42:50.112Z,100226.03
2022-08-21T10:47:48.979Z,100222.94
2022-08-21T10:53:07.094Z,100218.31
2022-08-21T10:58:08.960Z,100212.03
2022-08-21T11:03:08.926Z,100209.25
2022-08-21T11:08:09.652Z,100199.06
2022-08-21T11:13:12.525Z,100177.97
2022-08-21T11:18:16.209Z,100188.44
2022-08-21T11:23:16.684Z,100178.69
2022-08-21T11:28:17.920Z,100169.50
2022-08-21T11:33:22.969Z,100158.63
2022-08-21T11:38:28.666Z,100154.84
2022-08-21T11:43:34.959Z,100133.34
2022-08-21T11:48:38.102Z,100128.38
2022-08-21T11:53:37.572Z,100134.38
2022-08-21T11:58:37.969Z,100133.97
2022-08-21T12:03:36.407Z,100115.19
2022-08-21T12:08:34.195Z,100114.38
2022-08-21T12:13:40.160Z,100113.28
2022-08-21T12:18:38.716Z,100112.13
2022-08-21T12:23:46.464Z,100105.00
2022-08-21T12:28:43.293Z,100098.09
2022-08-21T12:33:41.618Z,100100.22
2022-08-21T12:38:45.520Z,100090.66
2022-08-21T12:43:44.441Z,100094.09
2022-08-21T12:48:45.116Z,100086.97
2022-08-21T12:53:45.100Z,100075.22
2022-08-21T12:58:45.649Z,100088.72
2022-08-21T13:03:45.293Z,100084.03
2022-08-21T13:08:47.111Z,100113.03
2022-08-21T13:13:50.129Z,100111.69
2022-08-21T13:18:54.136Z,100088.41
2022-08-21T13:23:51.416Z,100124.94
2022-08-21T13:28:49.008Z,100130.53
2022-08-21T13:33:45.969Z,100128.56
2022-08-21T13:38:44.850Z,100122.22
2022-08-21T13:43:45.858Z,100120.63
2022-08-21T13:48:43.250Z,100131.25
2022-08-21T13:53:46.959Z,100130.66
2022-08-21T13:58:45.751Z,100135.09
2022-08-21T14:03:43.841Z,100143.72
2022-08-21T14:08:41.424Z,100157.59
2022-08-21T14:13:41.242Z,100150.03
2022-08-21T14:18:44.354Z,100148.28
2022-08-21T14:23:42.102Z,100135.03
2022-08-21T14:28:40.993Z,100125.81
2022-08-21T14:33:37.935Z,100120.88
2022-08-21T14:38:36.301Z,100109.03
2022-08-21T14:43:33.096Z,100123.09
2022-08-21T14:48:30.843Z,100125.22
2022-08-21T14:53:27.703Z,100123.25
2022-08-21T14:58:25.430Z,100102.50
2022-08-21T15:03:22.732Z,100112.56
2022-08-21T15:08:20.305Z,100111.66
2022-08-21T15:13:17.276Z,100108.56
2022-08-21T15:18:14.273Z,100100.75
2022-08-21T15:23:14.833Z,100090.53
2022-08-21T15:28:13.293Z,100084.19
2022-08-21T15:33:12.360Z,100075.78
2022-08-21T15:38:11.439Z,100074.59
2022-08-21T15:43:10.761Z,100079.22
2022-08-21T15:48:08.231Z,100074.28
2022-08-21T15:53:06.528Z,100112.25
2022-08-21T15:58:06.065Z,100109.25
2022-08-21T16:03:05.432Z,100107.91
2022-08-21T16:08:03.069Z,100097.50
2022-08-21T16:13:03.725Z,100078.50
2022-08-21T16:18:00.407Z,100086.34
2022-08-21T16:22:57.954Z,100106.16
2022-08-21T16:27:59.288Z,100109.72
2022-08-21T16:32:56.911Z,100117.38
2022-08-21T16:37:53.755Z,100127.72
2022-08-21T16:42:50.557Z,100111.34
2022-08-21T16:47:49.326Z,100092.28
2022-08-21T16:52:48.534Z,100091.78
2022-08-21T16:57:45.489Z,100096.50
2022-08-21T17:02:45.165Z,100099.81
2022-08-21T17:07:43.107Z,100117.47
2022-08-21T17:12:41.327Z,100121.63
2022-08-21T17:17:38.220Z,100153.00
2022-08-21T17:22:35.096Z,100171.41
2022-08-21T17:27:32.683Z,100211.13
2022-08-21T17:32:31.155Z,100214.97
2022-08-21T17:37:29.403Z,100223.41
2022-08-21T17:42:26.849Z,100250.94
2022-08-21T17:47:24.532Z,100261.78
2022-08-21T17:52:21.403Z,100275.78
2022-08-21T17:57:19.421Z,100282.66
2022-08-21T18:02:21.153Z,100295.44
2022-08-21T18:07:32.409Z,100294.47
2022-08-21T18:12:30.606Z,100288.88
2022-08-21T18:17:29.831Z,100299.16
2022-08-21T18:22:28.669Z,100299.00
2022-08-21T18:27:29.469Z,100295.81
2022-08-21T18:32:30.860Z,100293.38
2022-08-21T18:37:29.597Z,100285.31
2022-08-21T18:42:28.672Z,100292.03
2022-08-21T18:47:28.677Z,100264.19
2022-08-21T18:52:28.382Z,100262.47
2022-08-21T18:57:28.480Z,100247.88
2022-08-21T19:02:25.209Z,100257.19
2022-08-21T19:07:22.193Z,100250.78
2022-08-21T19:12:22.647Z,100247.31
2022-08-21T19:17:20.696Z,100220.75
2022-08-21T19:22:17.479Z,100232.53
2022-08-21T19:27:14.741Z,100224.75
2022-08-21T19:32:14.245Z,100212.59
2022-08-21T19:37:15.754Z,100220.41
2022-08-21T19:42:12.855Z,100197.75
2022-08-21T19:47:10.629Z,100206.03
2022-08-21T19:52:13.894Z,100202.50
2022-08-21T19:57:11.977Z,100197.88
2022-08-21T20:02:11.743Z,100202.84
2022-08-21T20:07:08.416Z,100208.75
2022-08-21T20:12:09.868Z,100208.56
2022-08-21T20:17:10.477Z,100203.78
2022-08-21T20:22:07.787Z,100197.06
2022-08-21T20:27:06.297Z,100172.72
2022-08-21T20:32:04.380Z,100180.13
2022-08-21T20:37:01.904Z,100181.34
2022-08-21T20:41:59.854Z,100188.47
2022-08-21T20:46:57.741Z,100186.34
2022-08-21T20:51:55.510Z,100181.72
2022-08-21T20:56:58.084Z,100185.25
2022-08-21T21:01:59.620Z,100170.06
2022-08-21T21:06:59.047Z,100187.06
2022-08-21T21:11:58.931Z,100182.53
2022-08-21T21:16:58.154Z,100191.47
2022-08-21T21:21:59.099Z,100164.09
2022-08-21T21:26:57.900Z,100187.34
2022-08-21T21:31:55.375Z,100173.56
2022-08-21T21:36:56.272Z,100194.94
2022-08-21T21:41:56.733Z,100208.59
2022-08-21T21:47:00.866Z,100223.75
2022-08-21T21:52:04.797Z,100224.44
2022-08-21T21:57:10.782Z,100241.31
2022-08-21T22:02:13.562Z,100257.31
2022-08-21T22:07:13.930Z,100259.25
2022-08-21T22:12:25.665Z,100254.19
2022-08-21T22:17:32.585Z,100248.25
2022-08-21T22:22:30.688Z,100256.63
2022-08-21T22:27:31.021Z,100253.38
2022-08-21T22:32:28.945Z,100264.63
2022-08-21T22:37:33.247Z,100272.94
2022-08-21T22:42:30.762Z,100301.38
2022-08-21T22:47:32.503Z,100304.31
2022-08-21T22:52:32.303Z,100300.84
2022-08-21T22:57:30.675Z,100309.97
2022-08-21T23:02:31.627Z,100313.06
2022-08-21T23:07:43.055Z,100318.72
2022-08-21T23:12:43.833Z,100310.59
2022-08-21T23:17:50.101Z,100304.31
2022-08-21T23:22:54.657Z,100311.38
2022-08-21T23:27:57.292Z,100316.31
2022-08-21T23:33:09.038Z,100297.59
2022-08-21T23:38:11.894Z,100304.41
2022-08-21T23:43:16.385Z,100320.81
2022-08-21T23:53:50.279Z,100332.56
2022-08-21T23:58:52.999Z,100318.28
